Time;durP1;ratioP1;P1;durP2;ratioP2;P2;SDS_P1;SDS_P2;PMS_P1;PMS_P2;Temp;Humidity;BMP_temperature;BMP_pressure;BME280_temperature;BME280_humidity;BME280_pressure;Samples;Min_cycle;Max_cycle;Signal;HPM_P1;HPM_P2
2022/09/22 00:00:10;;;;;;;15.68;14.27;;;;;;;9.24;100.00;102403.59;5274372;28;20024;-71
2022/09/22 00:02:41;;;;;;;15.98;14.38;;;;;;;9.24;100.00;102397.47;5272016;28;20189;-70
2022/09/22 00:05:13;;;;;;;15.40;13.82;;;;;;;9.29;100.00;102405.94;5270797;28;20058;-70
2022/09/22 00:07:46;;;;;;;16.30;14.70;;;;;;;9.22;100.00;102394.13;5274025;28;20024;-71
2022/09/22 00:10:20;;;;;;;15.88;14.23;;;;;;;9.19;100.00;102396.91;5271115;28;20070;-70
2022/09/22 00:12:53;;;;;;;14.95;13.45;;;;;;;9.09;100.00;102385.25;5275368;28;20354;-70
2022/09/22 00:15:24;;;;;;;14.98;13.48;;;;;;;9.16;100.00;102394.44;5273067;28;20033;-70
2022/09/22 00:17:56;;;;;;;15.68;14.07;;;;;;;9.12;100.00;102392.94;5272686;28;20031;-70
2022/09/22 00:20:27;;;;;;;15.38;13.90;;;;;;;9.13;100.00;102395.47;5272766;28;21902;-70
2022/09/22 00:22:58;;;;;;;15.45;13.77;;;;;;;9.10;100.00;102381.72;5271774;28;20424;-71
2022/09/22 00:25:29;;;;;;;15.02;13.63;;;;;;;9.05;100.00;102387.19;5270722;28;20493;-70
2022/09/22 00:28:01;;;;;;;14.82;13.43;;;;;;;9.04;100.00;102395.13;5275051;28;20093;-70
2022/09/22 00:30:32;;;;;;;14.20;12.82;;;;;;;9.02;100.00;102393.44;5273030;28;20031;-71
2022/09/22 00:33:03;;;;;;;15.93;14.27;;;;;;;9.01;100.00;102390.88;5273149;28;20021;-70
2022/09/22 00:35:38;;;;;;;17.27;13.27;;;;;;;8.97;100.00;102392.81;5270794;28;20025;-70
2022/09/22 00:38:09;;;;;;;14.40;12.77;;;;;;;8.94;100.00;102395.63;5255890;28;20028;-70
2022/09/22 00:40:40;;;;;;;14.57;12.60;;;;;;;8.94;100.00;102385.16;5272996;28;20686;-70
2022/09/22 00:43:21;;;;;;;14.82;13.35;;;;;;;9.02;100.00;102395.22;5250815;28;20081;-70
2022/09/22 00:46:11;;;;;;;15.40;13.80;;;;;;;8.99;100.00;102390.13;5270642;28;20024;-71
2022/09/22 00:48:59;;;;;;;15.15;13.65;;;;;;;9.08;100.00;102391.41;5272488;28;20484;-70
2022/09/22 00:51:35;;;;;;;14.48;13.07;;;;;;;8.90;100.00;102385.38;5269508;28;20777;-70
2022/09/22 00:54:13;;;;;;;15.00;13.43;;;;;;;8.85;100.00;102384.78;5273681;28;20055;-70
2022/09/22 00:57:01;;;;;;;18.83;13.88;;;;;;;8.93;100.00;102380.84;5262481;28;20070;-70
2022/09/22 00:59:33;;;;;;;14.90;13.40;;;;;;;8.79;100.00;102380.75;5273347;28;20507;-70
2022/09/22 01:02:05;;;;;;;15.07;13.50;;;;;;;8.75;100.00;102380.06;5270112;28;20045;-70
2022/09/22 01:04:36;;;;;;;14.98;13.52;;;;;;;8.75;100.00;102379.19;5270850;28;20054;-71
2022/09/22 01:07:09;;;;;;;13.75;12.55;;;;;;;8.69;100.00;102375.16;5270586;28;20028;-70
2022/09/22 01:09:40;;;;;;;14.68;13.25;;;;;;;8.70;100.00;102371.59;5272109;28;20032;-70
2022/09/22 01:12:12;;;;;;;15.25;13.32;;;;;;;8.67;100.00;102370.91;5271803;28;20122;-70
2022/09/22 01:14:50;;;;;;;13.40;12.15;;;;;;;8.79;100.00;102367.69;5253604;28;20037;-70
2022/09/22 01:18:00;;;;;;;14.98;13.48;;;;;;;8.96;100.00;102359.75;5263310;28;20032;-70
2022/09/22 01:21:03;;;;;;;14.35;12.88;;;;;;;8.91;100.00;102355.72;5262420;28;20067;-70
2022/09/22 01:23:51;;;;;;;14.07;12.73;;;;;;;8.88;100.00;102356.72;5268944;28;20080;-70
2022/09/22 01:27:02;;;;;;;14.95;13.55;;;;;;;8.81;100.00;102357.13;5273693;28;20466;-70
2022/09/22 01:30:05;;;;;;;14.43;12.50;;;;;;;8.85;100.00;102353.44;5274390;28;20470;-70
2022/09/22 01:32:41;;;;;;;14.38;12.98;;;;;;;8.64;100.00;102355.44;5254317;28;20123;-70
2022/09/22 01:35:23;;;;;;;14.60;13.18;;;;;;;8.64;100.00;102352.81;5266028;28;20123;-70
2022/09/22 01:38:08;;;;;;;16.02;14.45;;;;;;;8.64;100.00;102348.44;5276841;28;20029;-69
2022/09/22 01:40:53;;;;;;;16.30;14.77;;;;;;;8.48;100.00;102344.91;5275124;28;20119;-70
2022/09/22 01:43:49;;;;;;;16.75;15.15;;;;;;;8.73;100.00;102344.47;5278518;28;20029;-70
2022/09/22 01:46:26;;;;;;;16.60;14.90;;;;;;;8.57;100.00;102344.44;5275701;28;20056;-70
2022/09/22 01:49:01;;;;;;;17.55;15.13;;;;;;;8.47;100.00;102341.47;5277587;28;20081;-70
2022/09/22 01:51:40;;;;;;;17.10;15.40;;;;;;;8.53;100.00;102340.31;5276562;28;20108;-71
2022/09/22 01:54:18;;;;;;;16.42;14.73;;;;;;;8.52;100.00;102338.59;5272308;28;20336;-70
2022/09/22 01:56:57;;;;;;;15.70;14.20;;;;;;;8.51;100.00;102334.31;5274031;28;20036;-70
2022/09/22 01:59:30;;;;;;;16.35;14.63;;;;;;;8.41;100.00;102325.25;5276597;28;20029;-70
2022/09/22 02:02:05;;;;;;;;;;;;;;;9.06;100.00;102327.91;5275945;28;20488;-70
2022/09/22 02:04:44;;;;;;;15.15;13.57;;;;;;;8.55;100.00;102327.16;5268587;28;19916;-71
2022/09/22 02:07:39;;;;;;;16.50;14.80;;;;;;;8.67;100.00;102331.72;5272846;28;20065;-71
2022/09/22 02:10:13;;;;;;;16.67;14.77;;;;;;;8.41;100.00;102322.63;5275521;28;20020;-70
2022/09/22 02:12:46;;;;;;;15.65;14.25;;;;;;;8.33;100.00;102319.56;5276319;28;20086;-70
2022/09/22 02:18:16;;;;;;;16.02;14.43;;;;;;;8.36;100.00;102316.78;5275135;28;20071;-70
2022/09/22 02:20:49;;;;;;;15.07;13.68;;;;;;;8.26;100.00;102316.44;5272574;28;20445;-69
2022/09/22 02:23:20;;;;;;;14.88;13.48;;;;;;;8.25;100.00;102312.13;5274624;28;20043;-70
2022/09/22 02:25:53;;;;;;;14.95;13.57;;;;;;;8.24;100.00;102311.28;5269738;28;20413;-69
2022/09/22 02:28:25;;;;;;;14.40;13.10;;;;;;;8.22;100.00;102307.91;5274394;28;20307;-69
2022/09/22 02:30:58;;;;;;;14.23;12.93;;;;;;;8.20;100.00;102303.69;5271611;28;20381;-69
2022/09/22 02:33:34;;;;;;;15.55;13.90;;;;;;;8.19;100.00;102307.22;5274951;28;20024;-69
2022/09/22 02:36:24;;;;;;;15.25;13.68;;;;;;;8.36;100.00;102309.78;5265070;28;20040;-69
2022/09/22 02:39:03;;;;;;;14.85;13.48;;;;;;;8.25;100.00;102301.66;5268886;28;20028;-69
2022/09/22 02:41:44;;;;;;;15.80;14.20;;;;;;;8.09;100.00;102301.63;5273383;28;20466;-69
2022/09/22 02:44:46;;;;;;;15.77;14.27;;;;;;;8.36;100.00;102296.75;5274988;28;20055;-69
2022/09/22 02:47:40;;;;;;;16.10;14.60;;;;;;;8.15;100.00;102297.88;5275705;28;20028;-69
2022/09/22 02:50:16;;;;;;;16.42;14.88;;;;;;;8.08;100.00;102288.66;5274570;28;20101;-70
2022/09/22 02:52:51;;;;;;;17.88;15.40;;;;;;;8.09;100.00;102283.34;5277418;28;20020;-70
2022/09/22 02:55:22;;;;;;;17.42;15.77;;;;;;;8.01;100.00;102288.97;5270867;28;20485;-69
2022/09/22 02:57:54;;;;;;;17.30;15.38;;;;;;;8.00;100.00;102294.28;5275228;28;20035;-70
2022/09/22 03:00:25;;;;;;;15.60;14.10;;;;;;;7.98;100.00;102296.94;5275085;28;20147;-70
2022/09/22 03:02:56;;;;;;;16.05;14.57;;;;;;;7.94;100.00;102287.59;5265557;28;20032;-70
2022/09/22 03:05:28;;;;;;;17.13;15.43;;;;;;;7.95;100.00;102284.03;5272687;28;20486;-70
2022/09/22 03:07:59;;;;;;;16.70;15.20;;;;;;;7.91;100.00;102282.50;5275300;28;20016;-70
2022/09/22 03:10:30;;;;;;;16.45;14.75;;;;;;;7.91;100.00;102285.13;5274668;28;20060;-69
2022/09/22 03:13:02;;;;;;;15.68;14.25;;;;;;;7.90;100.00;102283.44;5273412;28;20025;-70
2022/09/22 03:15:33;;;;;;;16.35;14.75;;;;;;;7.87;100.00;102273.16;5273075;28;20036;-69
2022/09/22 03:18:04;;;;;;;15.27;13.85;;;;;;;7.88;100.00;102271.38;5269368;28;20393;-70
2022/09/22 03:20:36;;;;;;;15.88;14.27;;;;;;;7.88;100.00;102271.38;5272651;28;20084;-70
2022/09/22 03:23:07;;;;;;;16.33;14.65;;;;;;;7.83;100.00;102276.84;5276635;28;20021;-70
2022/09/22 03:25:39;;;;;;;15.20;13.80;;;;;;;7.81;100.00;102286.53;5249194;28;20024;-69
2022/09/22 03:28:10;;;;;;;14.52;13.23;;;;;;;7.77;100.00;102274.56;5269850;28;20527;-70
2022/09/22 03:30:41;;;;;;;16.65;14.27;;;;;;;7.76;100.00;102272.84;5253575;28;20033;-70
2022/09/22 03:33:15;;;;;;;16.10;14.52;;;;;;;7.83;100.00;102271.63;5275858;28;20780;-70
2022/09/22 03:35:47;;;;;;;16.00;14.40;;;;;;;7.74;100.00;102269.50;5269997;28;20032;-70
2022/09/22 03:38:18;;;;;;;15.65;14.05;;;;;;;7.72;100.00;102260.88;5256899;28;20032;-70
2022/09/22 03:40:51;;;;;;;15.75;14.10;;;;;;;7.72;100.00;102269.53;5273997;28;20028;-70
2022/09/22 03:43:22;;;;;;;14.27;12.88;;;;;;;7.70;100.00;102270.56;5271547;28;20029;-69
2022/09/22 03:45:58;;;;;;;16.33;14.70;;;;;;;7.74;100.00;102261.66;5268485;28;20531;-69
2022/09/22 03:48:30;;;;;;;15.48;14.00;;;;;;;7.66;100.00;102261.22;5258289;28;20036;-69
2022/09/22 03:51:01;;;;;;;15.65;14.18;;;;;;;7.66;100.00;102267.25;5273385;28;20037;-70
2022/09/22 03:53:34;;;;;;;16.05;14.43;;;;;;;7.62;100.00;102263.13;5270801;28;20021;-70
2022/09/22 03:56:08;;;;;;;16.57;14.73;;;;;;;7.65;100.00;102264.72;5270776;28;20051;-70
2022/09/22 03:58:40;;;;;;;15.60;14.05;;;;;;;7.55;100.00;102259.97;5275100;28;20277;-70
2022/09/22 04:01:12;;;;;;;15.98;13.98;;;;;;;7.52;100.00;102261.88;5268410;28;20423;-70
2022/09/22 04:03:43;;;;;;;15.88;14.38;;;;;;;7.53;100.00;102259.19;5267958;28;20170;-70
2022/09/22 04:06:14;;;;;;;16.25;14.02;;;;;;;7.51;100.00;102261.03;5271848;28;20025;-69
2022/09/22 04:08:46;;;;;;;15.38;13.88;;;;;;;7.52;100.00;102257.50;5272214;28;20499;-69
2022/09/22 04:11:17;;;;;;;15.93;14.43;;;;;;;7.51;100.00;102258.44;5271689;28;20035;-69
2022/09/22 04:13:49;;;;;;;15.05;13.45;;;;;;;7.47;100.00;102254.28;5274822;28;20032;-70
2022/09/22 04:16:20;;;;;;;15.52;13.85;;;;;;;7.47;100.00;102256.91;5271820;28;20028;-69
2022/09/22 04:18:51;;;;;;;14.93;13.32;;;;;;;7.46;100.00;102255.22;5273137;28;20059;-69
2022/09/22 04:21:23;;;;;;;14.20;12.90;;;;;;;7.46;100.00;102250.00;5271836;28;20086;-70
2022/09/22 04:23:55;;;;;;;16.20;14.60;;;;;;;7.44;100.00;102245.78;5271039;28;20497;-69
2022/09/22 04:26:27;;;;;;;14.75;13.35;;;;;;;7.41;100.00;102251.97;5268381;28;20119;-70
2022/09/22 04:28:58;;;;;;;15.07;13.57;;;;;;;7.38;100.00;102246.91;5272385;28;20029;-69
2022/09/22 04:31:29;;;;;;;14.27;12.98;;;;;;;7.34;100.00;102245.38;5268903;28;20056;-70
2022/09/22 04:34:01;;;;;;;15.20;13.65;;;;;;;7.35;100.00;102241.88;5269883;28;20078;-69
2022/09/22 04:36:32;;;;;;;15.63;13.38;;;;;;;7.35;100.00;102248.81;5271043;28;20038;-70
2022/09/22 04:39:03;;;;;;;14.63;13.23;;;;;;;7.28;100.00;102246.53;5275566;28;20024;-69
2022/09/22 04:41:35;;;;;;;14.75;13.25;;;;;;;7.29;100.00;102244.75;5270983;28;20755;-70
2022/09/22 04:44:06;;;;;;;16.05;14.48;;;;;;;7.30;100.00;102249.88;5269150;28;20043;-69
2022/09/22 04:46:37;;;;;;;14.98;13.63;;;;;;;7.26;100.00;102255.31;5271203;28;20036;-69
2022/09/22 04:49:08;;;;;;;16.75;15.07;;;;;;;7.27;100.00;102241.38;5272797;28;20024;-70
2022/09/22 04:51:40;;;;;;;15.18;13.60;;;;;;;7.23;100.00;102251.09;5271741;28;20029;-70
2022/09/22 04:54:13;;;;;;;14.98;13.50;;;;;;;7.17;100.00;102247.97;5271302;28;20036;-70
2022/09/22 04:56:44;;;;;;;17.38;14.38;;;;;;;7.17;100.00;102240.97;5273529;28;20027;-70
2022/09/22 04:59:16;;;;;;;16.70;15.05;;;;;;;7.21;100.00;102245.13;5270606;28;20020;-70
2022/09/22 05:01:47;;;;;;;17.52;15.85;;;;;;;7.19;100.00;102236.53;5271041;28;20039;-70
2022/09/22 05:04:18;;;;;;;18.08;16.17;;;;;;;7.20;100.00;102247.81;5271368;28;20284;-69
2022/09/22 05:06:50;;;;;;;16.80;15.20;;;;;;;7.17;100.00;102250.56;5273055;28;20029;-70
2022/09/22 05:09:21;;;;;;;19.70;16.27;;;;;;;7.20;100.00;102255.63;5254196;28;21190;-70
2022/09/22 05:11:53;;;;;;;18.35;16.50;;;;;;;7.19;100.00;102254.75;5268341;28;20025;-70
2022/09/22 05:14:25;;;;;;;17.58;15.98;;;;;;;7.22;100.00;102254.63;5270022;28;20059;-70
2022/09/22 05:16:56;;;;;;;19.25;15.20;;;;;;;7.17;100.00;102255.78;5274713;28;20028;-69
2022/09/22 05:19:28;;;;;;;16.17;14.70;;;;;;;7.20;100.00;102260.84;5273215;28;20032;-70
2022/09/22 05:21:59;;;;;;;17.58;14.85;;;;;;;7.09;100.00;102244.88;5261892;28;20436;-70
2022/09/22 05:24:31;;;;;;;16.33;14.60;;;;;;;7.10;100.00;102252.63;5264139;28;20489;-70
2022/09/22 05:27:04;;;;;;;18.02;14.93;;;;;;;7.10;100.00;102255.22;5266614;28;20028;-69
2022/09/22 05:29:35;;;;;;;16.85;15.15;;;;;;;7.12;100.00;102257.75;5276425;28;20040;-69
2022/09/22 05:32:06;;;;;;;16.92;15.32;;;;;;;7.07;100.00;102250.97;5271383;28;20024;-70
2022/09/22 05:34:37;;;;;;;17.23;15.52;;;;;;;7.09;100.00;102252.69;5271072;28;20432;-71
2022/09/22 05:37:08;;;;;;;16.55;15.05;;;;;;;7.05;100.00;102250.22;5273122;28;20489;-71
2022/09/22 05:39:40;;;;;;;16.98;15.27;;;;;;;7.06;100.00;102261.50;5272994;28;20035;-70
2022/09/22 05:42:11;;;;;;;17.80;16.00;;;;;;;7.10;100.00;102264.81;5268983;28;20082;-71
2022/09/22 05:44:42;;;;;;;17.67;15.98;;;;;;;7.07;100.00;102264.00;5271977;28;20025;-71
2022/09/22 05:47:13;;;;;;;18.98;17.25;;;;;;;7.10;100.00;102260.44;5270716;28;20028;-71
2022/09/22 05:49:45;;;;;;;18.65;16.75;;;;;;;7.13;100.00;102262.91;5270035;28;20349;-71
2022/09/22 05:52:16;;;;;;;18.08;16.38;;;;;;;7.15;100.00;102268.03;5270392;28;20236;-71
2022/09/22 05:54:47;;;;;;;18.85;16.98;;;;;;;7.16;100.00;102264.50;5254046;28;20024;-71
2022/09/22 05:57:24;;;;;;;18.95;16.95;;;;;;;7.19;100.00;102265.19;5272472;28;20040;-71
2022/09/22 05:59:55;;;;;;;18.42;16.58;;;;;;;7.17;100.00;102264.44;5268903;28;20042;-71
2022/09/22 06:02:26;;;;;;;17.88;16.17;;;;;;;7.17;100.00;102255.78;5269562;28;20037;-71
2022/09/22 06:04:58;;;;;;;17.35;15.65;;;;;;;7.18;100.00;102260.06;5247796;28;20105;-72
2022/09/22 06:07:29;;;;;;;18.02;16.27;;;;;;;7.24;100.00;102265.00;5272000;28;20040;-72
2022/09/22 06:10:00;;;;;;;19.23;17.33;;;;;;;7.25;100.00;102264.91;5274444;28;20044;-72
2022/09/22 06:12:32;;;;;;;19.33;16.50;;;;;;;7.29;100.00;102266.44;5272216;28;20031;-71
2022/09/22 06:15:05;;;;;;;18.83;17.08;;;;;;;7.34;100.00;102271.44;5275362;28;20465;-72
2022/09/22 06:17:36;;;;;;;19.30;17.38;;;;;;;7.38;100.00;102264.31;5271579;28;20028;-72
2022/09/22 06:20:08;;;;;;;20.33;18.23;;;;;;;7.39;100.00;102264.25;5271423;28;20101;-72
2022/09/22 06:22:39;;;;;;;20.25;17.88;;;;;;;7.43;100.00;102265.78;5274415;28;20047;-72
2022/09/22 06:25:10;;;;;;;19.98;18.08;;;;;;;7.49;100.00;102262.03;5275935;28;20028;-72
2022/09/22 06:27:42;;;;;;;19.17;16.98;;;;;;;7.52;100.00;102260.13;5275587;28;20028;-71
2022/09/22 06:30:14;;;;;;;19.63;17.63;;;;;;;7.56;100.00;102260.81;5276543;28;20036;-72
2022/09/22 06:32:52;;;;;;;22.10;18.13;;;;;;;7.70;100.00;102262.75;5276047;28;20081;-72
2022/09/22 06:35:24;;;;;;;18.85;16.95;;;;;;;7.63;100.00;102250.91;5277155;28;20020;-72
2022/09/22 06:37:56;;;;;;;20.50;18.30;;;;;;;7.69;100.00;102256.69;5277706;28;20024;-72
2022/09/22 06:40:28;;;;;;;19.23;17.45;;;;;;;7.74;100.00;102259.06;5276687;28;20040;-72
2022/09/22 06:43:06;;;;;;;21.20;18.35;;;;;;;7.84;100.00;102260.28;5275123;28;20031;-72
2022/09/22 06:45:38;;;;;;;22.13;18.90;;;;;;;7.90;100.00;102262.56;5277928;28;20017;-72
2022/09/22 06:48:10;;;;;;;26.38;18.65;;;;;;;8.01;100.00;102268.09;5277635;28;20035;-72
2022/09/22 06:50:47;;;;;;;22.55;20.25;;;;;;;8.16;100.00;102265.63;5274940;28;20441;-72
2022/09/22 06:53:19;;;;;;;21.65;19.35;;;;;;;8.13;100.00;102270.97;5276799;28;20028;-72
2022/09/22 06:55:51;;;;;;;23.67;20.08;;;;;;;8.23;100.00;102266.97;5263196;28;20607;-72
2022/09/22 06:58:22;;;;;;;22.58;20.17;;;;;;;8.38;100.00;102252.31;5271889;28;20385;-72
2022/09/22 07:00:57;;;;;;;22.85;20.45;;;;;;;8.49;100.00;102263.88;5276281;28;20028;-71
2022/09/22 07:03:29;;;;;;;22.17;19.88;;;;;;;8.57;100.00;102254.78;5274949;28;20031;-72
2022/09/22 07:06:01;;;;;;;23.67;21.23;;;;;;;8.64;100.00;102248.31;5274916;28;20028;-71
2022/09/22 07:08:34;;;;;;;22.30;20.13;;;;;;;8.73;100.00;102248.63;5276863;28;20028;-71
2022/09/22 07:11:08;;;;;;;23.20;20.40;;;;;;;8.94;100.00;102248.38;5274464;28;20443;-71
2022/09/22 07:13:41;;;;;;;23.98;20.55;;;;;;;9.00;100.00;102248.03;5275529;28;20024;-71
2022/09/22 07:16:17;;;;;;;26.48;21.23;;;;;;;9.13;100.00;102251.69;5255009;28;20028;-72
2022/09/22 07:18:51;;;;;;;23.17;20.67;;;;;;;9.19;100.00;102253.09;5274030;28;20626;-72
2022/09/22 07:21:26;;;;;;;22.20;19.80;;;;;;;9.35;100.00;102247.81;5270383;28;20053;-71
2022/09/22 07:23:58;;;;;;;22.45;19.60;;;;;;;9.52;100.00;102249.47;5276906;28;20024;-72
2022/09/22 07:26:34;;;;;;;23.48;20.52;;;;;;;9.58;100.00;102246.50;5271186;28;20101;-72
2022/09/22 07:29:10;;;;;;;22.35;18.80;;;;;;;9.61;100.00;102241.09;5274043;28;20032;-72
2022/09/22 07:31:41;;;;;;;20.35;18.27;;;;;;;9.65;100.00;102235.56;5275363;28;20032;-72
2022/09/22 07:34:13;;;;;;;20.90;18.80;;;;;;;9.84;100.00;102242.34;5274551;28;20027;-72
2022/09/22 07:36:45;;;;;;;19.95;17.42;;;;;;;9.91;100.00;102236.66;5274516;28;20032;-72
2022/09/22 07:39:16;;;;;;;20.35;15.93;;;;;;;10.12;100.00;102239.78;5273764;28;20366;-72
2022/09/22 07:41:48;;;;;;;15.30;13.80;;;;;;;10.30;100.00;102250.91;5272516;28;20143;-72
2022/09/22 07:47:08;;;;;;;15.60;13.57;;;;;;;10.52;100.00;102250.44;5271086;28;20025;-72
2022/09/22 07:49:41;;;;;;;15.27;13.77;;;;;;;10.65;100.00;102246.13;5274601;28;20370;-72
2022/09/22 07:52:13;;;;;;;16.63;13.20;;;;;;;10.74;100.00;102243.88;5276429;28;20080;-72
2022/09/22 07:54:44;;;;;;;14.25;12.70;;;;;;;10.86;100.00;102235.22;5276429;28;20032;-72
2022/09/22 07:57:15;;;;;;;15.40;13.45;;;;;;;11.05;100.00;102237.50;5275659;28;20024;-72
2022/09/22 07:59:47;;;;;;;12.80;11.35;;;;;;;11.18;100.00;102241.03;5274256;28;20032;-72
2022/09/22 08:02:19;;;;;;;13.27;11.93;;;;;;;11.35;100.00;102239.91;5256054;28;20044;-72
2022/09/22 08:04:50;;;;;;;12.18;10.95;;;;;;;11.42;100.00;102234.16;5274800;28;20427;-72
2022/09/22 08:07:21;;;;;;;13.00;11.68;;;;;;;11.68;100.00;102242.09;5276092;28;20033;-72
2022/09/22 08:09:52;;;;;;;12.68;11.23;;;;;;;11.74;100.00;102228.53;5275509;28;20028;-72
2022/09/22 08:12:25;;;;;;;12.98;10.57;;;;;;;11.98;100.00;102227.88;5273593;28;20013;-72
2022/09/22 08:14:56;;;;;;;12.13;9.65;;;;;;;12.05;100.00;102224.72;5274103;28;20021;-72
2022/09/22 08:17:28;;;;;;;11.23;10.02;;;;;;;12.10;100.00;102232.25;5274301;28;20031;-72
2022/09/22 08:20:01;;;;;;;12.88;10.10;;;;;;;12.28;100.00;102232.78;5272091;28;20059;-72
2022/09/22 08:22:33;;;;;;;;;;;;;;;12.74;100.00;102225.09;5273928;22;20054;-74
2022/09/22 08:25:05;;;;;;;10.95;9.18;;;;;;;12.49;100.00;102228.63;5248842;28;19928;-74
2022/09/22 08:27:38;;;;;;;11.23;9.20;;;;;;;12.70;100.00;102225.44;5248557;28;20024;-74
2022/09/22 08:30:10;;;;;;;11.98;9.60;;;;;;;12.73;100.00;102205.03;5269723;28;20044;-73
2022/09/22 08:32:42;;;;;;;13.77;8.70;;;;;;;12.93;100.00;102214.09;5273875;28;20055;-74
2022/09/22 08:35:13;;;;;;;9.23;7.95;;;;;;;13.10;100.00;102213.66;5270181;28;20048;-74
2022/09/22 08:37:48;;;;;;;9.68;7.15;;;;;;;13.24;100.00;102212.69;5260890;28;20032;-74
2022/09/22 08:40:22;;;;;;;9.27;8.07;;;;;;;13.31;100.00;102221.81;5254825;28;20024;-75
2022/09/22 08:42:54;;;;;;;11.18;7.22;;;;;;;13.49;100.00;102216.13;5275186;28;20123;-75
2022/09/22 08:45:37;;;;;;;10.65;7.30;;;;;;;13.75;100.00;102207.09;5271121;28;20023;-75
2022/09/22 08:54:26;;;;;;;9.73;5.88;;;;;;;14.28;100.00;102223.19;5239180;28;20120;-75
2022/09/22 08:57:18;;;;;;;8.02;5.25;;;;;;;14.48;100.00;102223.41;5231567;28;20044;-75
2022/09/22 09:00:05;;;;;;;7.93;4.60;;;;;;;14.72;100.00;102221.44;5234746;28;20672;-73
2022/09/22 09:02:58;;;;;;;6.13;4.40;;;;;;;14.85;100.00;102218.69;5264306;28;20040;-73
2022/09/22 09:05:39;;;;;;;9.10;4.50;;;;;;;14.98;100.00;102226.44;5261562;28;20036;-75
2022/09/22 09:08:27;;;;;;;6.57;4.63;;;;;;;15.19;100.00;102216.75;5272241;28;20481;-75
2022/09/22 09:11:25;;;;;;;7.25;4.55;;;;;;;15.49;100.00;102228.34;5251054;28;20505;-75
2022/09/22 09:14:34;;;;;;;5.72;3.40;;;;;;;15.66;100.00;102230.47;5266496;28;20029;-75
2022/09/22 09:17:27;;;;;;;7.07;3.60;;;;;;;15.77;100.00;102214.53;5271963;28;20028;-75
2022/09/22 09:20:13;;;;;;;6.55;4.07;;;;;;;15.86;100.00;102222.66;5254887;28;20382;-75
2022/09/22 09:22:54;;;;;;;8.90;3.28;;;;;;;16.01;100.00;102226.63;5271018;28;20049;-73
2022/09/22 09:25:35;;;;;;;4.72;3.20;;;;;;;16.08;100.00;102213.72;5271232;28;20663;-75
2022/09/22 09:28:13;;;;;;;6.18;2.60;;;;;;;16.42;100.00;102225.66;5262279;28;20025;-74
2022/09/22 09:30:49;;;;;;;4.30;2.55;;;;;;;16.52;100.00;102223.06;5271473;28;20040;-75
2022/09/22 09:33:32;;;;;;;5.80;3.20;;;;;;;16.61;100.00;102219.59;5253370;28;20496;-73
2022/09/22 09:36:03;;;;;;;5.22;3.00;;;;;;;16.78;100.00;102218.97;5271434;28;20404;-73
2022/09/22 09:38:43;;;;;;;5.90;2.67;;;;;;;16.95;100.00;102220.09;5273198;28;20033;-74
2022/09/22 09:41:20;;;;;;;5.90;3.13;;;;;;;17.04;100.00;102229.00;5268344;28;20119;-74
2022/09/22 09:44:00;;;;;;;5.78;3.10;;;;;;;17.21;100.00;102215.09;5273847;28;20028;-74
2022/09/22 09:46:54;;;;;;;5.00;2.63;;;;;;;17.44;100.00;102212.13;5256389;28;20033;-74
2022/09/22 09:49:26;;;;;;;5.30;2.83;;;;;;;17.39;100.00;102212.56;5275514;28;20047;-74
2022/09/22 09:52:00;;;;;;;4.63;2.95;;;;;;;17.50;100.00;102219.50;5275308;28;20029;-75
2022/09/22 09:54:31;;;;;;;6.60;3.42;;;;;;;17.60;100.00;102215.03;5273812;28;20029;-74
2022/09/22 09:57:15;;;;;;;7.95;3.42;;;;;;;17.64;100.00;102204.97;5254188;28;20062;-74
2022/09/22 10:03:23;;;;;;;3.55;2.45;;;;;;;18.21;100.00;102206.63;5278183;28;20072;-75
2022/09/22 10:06:05;;;;;;;4.72;2.10;;;;;;;18.16;100.00;102210.72;5276249;28;20067;-74
2022/09/22 10:08:43;;;;;;;5.65;2.33;;;;;;;18.16;100.00;102195.63;5259776;28;20366;-75
2022/09/22 10:11:15;;;;;;;3.97;2.17;;;;;;;18.18;100.00;102204.28;5267493;28;20033;-75
2022/09/22 10:13:55;;;;;;;4.40;2.35;;;;;;;18.45;100.00;102200.78;5256256;28;20066;-74
2022/09/22 10:16:29;;;;;;;4.32;2.60;;;;;;;18.48;100.00;102200.47;5275932;28;20359;-75
2022/09/22 10:19:20;;;;;;;3.90;2.45;;;;;;;18.74;100.00;102199.78;5273017;28;20493;-75
2022/09/22 10:21:51;;;;;;;4.60;2.63;;;;;;;18.56;100.00;102199.75;5256572;28;20139;-75
2022/09/22 10:24:31;;;;;;;6.72;2.70;;;;;;;18.86;100.00;102195.91;5276032;28;20429;-75
2022/09/22 10:27:04;;;;;;;2.75;2.30;;;;;;;18.87;100.00;102194.13;5273472;28;20040;-74
2022/09/22 10:29:36;;;;;;;3.75;1.92;;;;;;;18.99;100.00;102195.53;5268968;28;20024;-75
2022/09/22 10:32:11;;;;;;;4.43;2.17;;;;;;;19.07;94.45;102187.66;5271901;28;20059;-74
2022/09/22 10:34:45;;;;;;;4.55;2.83;;;;;;;19.05;93.25;102183.47;5272409;28;20044;-75
2022/09/22 10:37:25;;;;;;;3.75;2.92;;;;;;;19.14;88.96;102186.03;5275829;28;20025;-75
2022/09/22 10:40:00;;;;;;;4.18;2.88;;;;;;;19.25;89.99;102173.50;5274082;28;20077;-75
2022/09/22 10:42:42;;;;;;;3.35;1.60;;;;;;;19.22;83.72;102160.53;5273898;28;20024;-75
2022/09/22 10:45:18;;;;;;;3.90;2.27;;;;;;;19.30;78.48;102168.56;5271683;28;20033;-75
2022/09/22 10:47:55;;;;;;;7.30;2.97;;;;;;;19.34;77.10;102176.06;5275928;28;20028;-75
2022/09/22 10:50:42;;;;;;;4.47;2.50;;;;;;;19.28;78.97;102165.22;5253268;28;20024;-75
2022/09/22 10:53:34;;;;;;;3.65;1.88;;;;;;;19.62;81.20;102165.31;5274188;28;20044;-75
2022/09/22 10:56:21;;;;;;;5.07;2.00;;;;;;;19.58;80.53;102171.88;5256041;28;20043;-75
2022/09/22 10:59:04;;;;;;;3.85;2.50;;;;;;;19.69;79.35;102163.69;5273754;28;20032;-75
2022/09/22 11:01:58;;;;;;;3.38;1.80;;;;;;;19.79;76.83;102175.03;5274214;28;20463;-75
2022/09/22 11:05:07;;;;;;;3.17;1.70;;;;;;;19.92;77.37;102169.28;5272834;28;20040;-75
2022/09/22 11:14:17;;;;;;;3.33;2.17;;;;;;;19.84;59.83;102153.28;5239883;28;20033;-74
2022/09/22 11:16:59;;;;;;;5.72;1.98;;;;;;;20.00;55.83;102150.72;5270402;28;20052;-74
2022/09/22 11:20:01;;;;;;;2.93;1.80;;;;;;;20.20;53.27;102151.28;5277283;28;20107;-74
2022/09/22 11:22:55;;;;;;;3.45;1.52;;;;;;;20.20;53.62;102148.63;5272601;28;20396;-74
2022/09/22 11:25:46;;;;;;;3.95;2.10;;;;;;;20.20;51.12;102143.31;5271256;28;20388;-74
2022/09/22 11:28:44;;;;;;;3.75;1.60;;;;;;;20.39;53.43;102150.16;5275355;28;20024;-74
2022/09/22 11:31:37;;;;;;;3.20;1.40;;;;;;;20.37;50.02;102145.00;5271889;28;20131;-74
2022/09/22 11:34:50;;;;;;;5.00;1.57;;;;;;;20.54;49.82;102148.56;5275594;28;20032;-74
2022/09/22 11:37:49;;;;;;;4.43;1.40;;;;;;;20.34;50.63;102141.81;5269207;28;20365;-75
2022/09/22 11:40:31;;;;;;;3.08;1.33;;;;;;;20.10;49.19;102135.44;5274666;28;20028;-75
2022/09/22 11:43:24;;;;;;;3.65;1.30;;;;;;;19.92;50.17;102129.38;5277709;28;20024;-75
2022/09/22 11:46:08;;;;;;;3.97;1.08;;;;;;;19.80;50.63;102138.66;5276851;28;20489;-75
2022/09/22 11:48:39;;;;;;;3.83;1.10;;;;;;;19.58;49.88;102132.84;5273378;28;20039;-75
2022/09/22 11:51:39;;;;;;;3.30;1.35;;;;;;;19.79;50.92;102121.03;5275407;28;20029;-75
2022/09/22 11:54:35;;;;;;;4.05;1.40;;;;;;;20.19;50.58;102115.00;5257519;28;20054;-75
2022/09/22 11:57:08;;;;;;;5.15;1.42;;;;;;;20.02;46.85;102113.31;5273007;28;20758;-75
2022/09/22 12:00:17;;;;;;;2.05;1.08;;;;;;;20.57;49.27;102110.97;5262800;28;20052;-75
2022/09/22 12:03:01;;;;;;;3.63;1.33;;;;;;;20.47;46.01;102104.09;5274516;28;20032;-75
2022/09/22 12:05:51;;;;;;;1.80;0.85;;;;;;;20.55;47.36;102101.47;5275841;28;20036;-75
2022/09/22 12:08:30;;;;;;;4.03;1.20;;;;;;;20.16;46.45;102091.41;5271841;28;20037;-75
2022/09/22 12:11:06;;;;;;;3.42;1.17;;;;;;;20.24;45.28;102087.94;5256407;28;20032;-75
2022/09/22 12:13:43;;;;;;;2.15;0.90;;;;;;;20.31;46.31;102087.09;5276358;28;20047;-75
2022/09/22 12:16:23;;;;;;;4.93;1.30;;;;;;;20.49;46.40;102081.66;5275985;28;20111;-75